Goode, Virginia
Current Conditions -  °F | °C
As of 10:54 AM on Tuesday 21 Oct 2014 (Local Time) from KLYH Reporting Station
Few Clouds Few Clouds  
Wind Chill: 62°   Ceiling: Unl
Heat Index: 62°   Visibility: 10mi
Dew Point: 49°   Wind: 8mph
Humidity: 62%   Direction: 270°W
Pressure: 29.92"   Gusts: NA
Location:  37.36°N, 79.39°W
Report Text: KLYH 211454Z 27007KT 250V310 10SM FEW080 17/09 A2992 RMK AO2 SLP127 T01670094 58002
Loading
Personal Weather Stations






























Interactive Weather Map New forecast layout! Learn more

10-Day Weather Forecast

Advertisements
Track Severe Weather on mobile